Time;durP1;ratioP1;P1;durP2;ratioP2;P2;SDS_P1;SDS_P2;PMS_P1;PMS_P2;Temp;Humidity;BMP_temperature;BMP_pressure;BME280_temperature;BME280_humidity;BME280_pressure;Samples;Min_cycle;Max_cycle;Signal;HPM_P1;HPM_P2
2021/03/07 00:01:47;;;;;;;;;;;;;;;-0.04;76.02;101534.03;6165153;23;19912;-73
2021/03/07 00:04:13;;;;;;;;;;;;;;;-0.06;76.33;101536.09;6165017;23;19908;-73
2021/03/07 00:06:38;;;;;;;;;;;;;;;-0.12;76.07;101535.00;6116421;23;20320;-73
2021/03/07 00:09:04;;;;;;;;;;;;;;;-0.10;75.91;101523.91;6140104;23;19914;-73
2021/03/07 00:11:29;;;;;;;;;;;;;;;-0.11;76.05;101533.97;6115160;23;20224;-73
2021/03/07 00:13:55;;;;;;;;;;;;;;;-0.09;75.89;101520.13;6115946;23;20417;-73
2021/03/07 00:16:20;;;;;;;;;;;;;;;-0.11;75.57;101522.19;6140516;23;19931;-73
2021/03/07 00:18:46;;;;;;;;;;;;;;;-0.15;75.58;101519.03;6116363;23;19908;-73
2021/03/07 00:21:11;;;;;;;;;;;;;;;-0.15;75.57;101520.91;6164867;23;19920;-73
2021/03/07 00:23:37;;;;;;;;;;;;;;;-0.18;75.93;101510.41;6164984;23;20492;-73
2021/03/07 00:26:02;;;;;;;;;;;;;;;-0.19;75.81;101508.72;6140407;23;19908;-73
2021/03/07 00:28:27;;;;;;;;;;;;;;;-0.19;75.77;101515.00;6165096;23;19908;-73
2021/03/07 00:30:53;;;;;;;;;;;;;;;-0.24;75.66;101517.50;6191381;23;19909;-73
2021/03/07 00:33:18;;;;;;;;;;;;;;;-0.26;75.48;101503.19;6191403;23;20006;-73
2021/03/07 00:35:44;;;;;;;;;;;;;;;-0.27;75.39;101504.25;6164746;23;20330;-73
2021/03/07 00:38:09;;;;;;;;;;;;;;;-0.27;75.34;101501.50;6191449;23;19908;-73
2021/03/07 00:40:35;;;;;;;;;;;;;;;-0.28;75.33;101505.25;6190879;23;19940;-73
2021/03/07 00:43:00;;;;;;;;;;;;;;;-0.34;75.83;101504.16;6140537;23;19912;-73
2021/03/07 00:45:25;;;;;;;;;;;;;;;-0.38;75.92;101504.78;6165194;23;19908;-73
2021/03/07 00:47:51;;;;;;;;;;;;;;;-0.41;76.12;101505.19;6191532;23;20384;-73
2021/03/07 00:50:17;;;;;;;;;;;;;;;-0.38;76.21;101505.63;6165026;23;20277;-73
2021/03/07 00:52:42;;;;;;;;;;;;;;;-0.49;76.22;101500.69;6165019;23;19975;-73
2021/03/07 00:55:08;;;;;;;;;;;;;;;-0.47;76.42;101498.63;6190988;23;19915;-73
2021/03/07 00:57:33;;;;;;;;;;;;;;;-0.52;77.09;101498.38;6189592;23;19908;-73
2021/03/07 00:59:59;;;;;;;;;;;;;;;-0.60;76.71;101495.78;6189261;23;19932;-73
2021/03/07 01:02:27;;;;;;;;;;;;;;;-0.60;77.20;101493.03;6163196;23;19954;-73
2021/03/07 01:04:53;;;;;;;;;;;;;;;-0.66;77.33;101491.13;6163323;23;19908;-73
2021/03/07 01:07:18;;;;;;;;;;;;;;;-0.70;77.66;101486.06;6188077;23;19908;-73
2021/03/07 01:09:44;;;;;;;;;;;;;;;-0.72;77.73;101485.38;6138539;23;19908;-73
2021/03/07 01:12:09;;;;;;;;;;;;;;;-0.72;77.66;101488.13;6163126;23;19915;-74
2021/03/07 01:14:35;;;;;;;;;;;;;;;-0.73;77.51;101485.56;6163406;23;19908;-74
2021/03/07 01:17:00;;;;;;;;;;;;;;;-0.71;77.62;101484.34;6114420;23;20340;-73
2021/03/07 01:19:32;;;;;;;;;;;;;;;-0.72;77.13;101482.66;6138542;23;19908;-73
2021/03/07 01:21:57;;;;;;;;;;;;;;;-0.68;76.96;101486.69;6138635;23;19998;-73
2021/03/07 01:24:23;;;;;;;;;;;;;;;-0.70;77.01;101490.63;6113916;23;19912;-73
2021/03/07 01:26:48;;;;;;;;;;;;;;;-0.72;76.95;101482.66;6187919;23;19915;-73
2021/03/07 01:29:14;;;;;;;;;;;;;;;-0.68;76.54;101494.84;6187869;23;19908;-73
2021/03/07 01:31:39;;;;;;;;;;;;;;;-0.69;76.15;101487.72;6138053;23;19912;-73
2021/03/07 01:34:04;;;;;;;;;;;;;;;-0.72;76.44;101487.28;6138135;23;20403;-74
2021/03/07 01:36:30;;;;;;;;;;;;;;;-0.68;76.19;101483.94;6163312;23;19919;-73
2021/03/07 01:38:55;;;;;;;;;;;;;;;-0.68;76.06;101483.09;6137956;23;19908;-73
2021/03/07 01:41:21;;;;;;;;;;;;;;;-0.73;76.18;101486.41;6162843;23;19952;-73
2021/03/07 01:43:46;;;;;;;;;;;;;;;-0.77;76.51;101489.75;6163022;23;19915;-73
2021/03/07 01:46:11;;;;;;;;;;;;;;;-0.82;76.71;101478.56;6138209;23;19908;-73
2021/03/07 01:48:37;;;;;;;;;;;;;;;-0.85;76.75;101481.69;6189227;23;20352;-73
2021/03/07 01:51:02;;;;;;;;;;;;;;;-0.85;76.74;101474.34;6189038;23;19908;-73
2021/03/07 01:53:28;;;;;;;;;;;;;;;-0.89;76.85;101470.34;6162436;23;19909;-73
2021/03/07 01:55:53;;;;;;;;;;;;;;;-0.89;76.86;101470.34;6188998;23;19909;-73
2021/03/07 01:58:19;;;;;;;;;;;;;;;-0.93;76.97;101458.13;6163103;23;20437;-73
2021/03/07 02:00:45;;;;;;;;;;;;;;;-0.93;76.86;101455.38;6162422;23;20382;-73
2021/03/07 02:03:11;;;;;;;;;;;;;;;-0.91;76.70;101450.59;6162871;23;20000;-73
2021/03/07 02:05:36;;;;;;;;;;;;;;;-0.94;76.62;101453.72;6162718;23;20004;-73
2021/03/07 02:08:02;;;;;;;;;;;;;;;-0.97;76.65;101448.66;6188988;23;19946;-73
2021/03/07 02:10:31;;;;;;;;;;;;;;;-1.01;77.08;101444.63;6188529;23;19983;-74
2021/03/07 02:12:59;;;;;;;;;;;;;;;-1.03;77.22;101443.94;6189033;23;19908;-73
2021/03/07 02:15:25;;;;;;;;;;;;;;;-1.13;77.61;101439.69;6162756;23;19908;-73
2021/03/07 02:17:50;;;;;;;;;;;;;;;-1.17;77.85;101442.97;6162709;23;19963;-73
2021/03/07 02:20:17;;;;;;;;;;;;;;;-1.21;78.11;101434.34;6188938;23;19908;-73
2021/03/07 02:22:44;;;;;;;;;;;;;;;-1.18;77.90;101439.41;6162513;23;19919;-73
2021/03/07 02:25:10;;;;;;;;;;;;;;;-1.19;78.08;101437.72;6137435;23;20372;-73
2021/03/07 02:27:35;;;;;;;;;;;;;;;-1.20;78.00;101433.34;6188863;23;19986;-73
2021/03/07 02:30:02;;;;;;;;;;;;;;;-1.14;77.47;101429.81;6162805;23;19952;-73
2021/03/07 02:32:28;;;;;;;;;;;;;;;-1.13;77.20;101425.22;6162300;23;19987;-73
2021/03/07 02:34:54;;;;;;;;;;;;;;;-1.13;76.85;101425.22;6137685;23;19927;-73
2021/03/07 02:37:20;;;;;;;;;;;;;;;-1.13;76.97;101420.59;6188855;23;19908;-73
2021/03/07 02:39:45;;;;;;;;;;;;;;;-1.15;76.83;101419.09;6162196;23;20326;-73
2021/03/07 02:42:11;;;;;;;;;;;;;;;-1.15;76.90;101405.47;6188767;23;19939;-73
2021/03/07 02:44:38;;;;;;;;;;;;;;;-1.17;76.98;101408.41;6162723;23;20278;-73
2021/03/07 02:47:03;;;;;;;;;;;;;;;-1.19;77.18;101407.75;6162674;23;19908;-73
2021/03/07 02:49:29;;;;;;;;;;;;;;;-1.19;76.99;101410.47;6162820;23;19915;-73
2021/03/07 02:51:54;;;;;;;;;;;;;;;-1.22;77.16;101408.13;6162513;23;19932;-73
2021/03/07 02:54:19;;;;;;;;;;;;;;;-1.22;77.14;101413.59;6188279;23;19909;-73
2021/03/07 02:56:45;;;;;;;;;;;;;;;-1.22;77.10;101407.31;6162592;23;20310;-73
2021/03/07 02:59:11;;;;;;;;;;;;;;;-1.23;77.00;101398.25;6138100;23;20817;-73
2021/03/07 03:01:40;;;;;;;;;;;;;;;-1.24;76.96;101399.31;6188847;23;19912;-73
2021/03/07 03:04:08;;;;;;;;;;;;;;;-1.25;76.81;101394.91;6137744;23;19916;-73
2021/03/07 03:06:37;;;;;;;;;;;;;;;-1.31;76.92;101390.25;6137778;23;19928;-73
2021/03/07 03:09:04;;;;;;;;;;;;;;;-1.28;76.77;101392.56;6137268;23;19908;-74
2021/03/07 03:11:36;;;;;;;;;;;;;;;-1.28;76.55;101384.41;6162203;23;19909;-73
2021/03/07 03:14:02;;;;;;;;;;;;;;;-1.29;76.51;101388.13;6137665;23;19912;-73
2021/03/07 03:16:28;;;;;;;;;;;;;;;-1.33;76.64;101392.31;6162254;23;19915;-73
2021/03/07 03:18:54;;;;;;;;;;;;;;;-1.37;76.55;101380.94;6162220;23;19908;-73
2021/03/07 03:21:19;;;;;;;;;;;;;;;-1.42;76.78;101382.53;6137209;23;19999;-73
2021/03/07 03:23:45;;;;;;;;;;;;;;;-1.46;76.74;101375.81;6188387;23;19979;-73
2021/03/07 03:26:11;;;;;;;;;;;;;;;-1.49;76.71;101384.38;6162020;23;19923;-74
2021/03/07 03:28:40;;;;;;;;;;;;;;;-1.50;76.70;101374.53;6137648;23;19909;-73
2021/03/07 03:31:05;;;;;;;;;;;;;;;-1.52;76.79;101371.16;6188315;23;19991;-73
2021/03/07 03:33:30;;;;;;;;;;;;;;;-1.52;76.66;101371.16;6186521;23;19974;-73
2021/03/07 03:35:56;;;;;;;;;;;;;;;-1.55;76.80;101371.53;6188301;23;19908;-73
2021/03/07 03:38:22;;;;;;;;;;;;;;;-1.50;76.50;101374.53;6161861;23;19916;-73
2021/03/07 03:40:48;;;;;;;;;;;;;;;-1.58;76.43;101373.59;6161717;23;19908;-73
2021/03/07 03:43:14;;;;;;;;;;;;;;;-1.55;76.40;101368.81;6188200;23;19912;-74
2021/03/07 03:45:40;;;;;;;;;;;;;;;-1.58;76.56;101372.75;6188290;23;19962;-73
2021/03/07 03:48:06;;;;;;;;;;;;;;;-1.65;76.56;101369.94;6112874;23;19924;-73
2021/03/07 03:50:32;;;;;;;;;;;;;;;-1.65;76.70;101364.50;6137120;23;19940;-73
2021/03/07 03:52:59;;;;;;;;;;;;;;;-1.70;76.68;101366.97;6162050;23;19915;-73
2021/03/07 03:55:25;;;;;;;;;;;;;;;-1.72;76.75;101366.31;6136823;23;19909;-73
2021/03/07 03:57:52;;;;;;;;;;;;;;;-1.73;76.74;101361.06;6161838;23;19908;-73
2021/03/07 04:00:19;;;;;;;;;;;;;;;-1.75;76.74;101360.41;6162230;23;19909;-73
2021/03/07 04:02:44;;;;;;;;;;;;;;;-1.80;76.69;101364.56;6137252;23;19919;-73
2021/03/07 04:05:09;;;;;;;;;;;;;;;-1.81;76.59;101362.88;6113013;23;20254;-73
2021/03/07 04:07:35;;;;;;;;;;;;;;;-1.81;76.62;101364.75;6136781;23;19915;-73
2021/03/07 04:10:00;;;;;;;;;;;;;;;-1.84;76.60;101363.25;6161560;23;19979;-73
2021/03/07 04:12:26;;;;;;;;;;;;;;;-1.82;76.59;101363.06;6188100;23;19909;-73
2021/03/07 04:14:51;;;;;;;;;;;;;;;-1.87;76.59;101362.78;6161851;23;19962;-73
2021/03/07 04:17:18;;;;;;;;;;;;;;;-1.87;76.69;101358.16;6137176;23;19908;-73
2021/03/07 04:19:44;;;;;;;;;;;;;;;-1.90;76.78;101365.88;6188078;23;19915;-73
2021/03/07 04:22:11;;;;;;;;;;;;;;;-1.93;76.82;101358.94;6161942;23;19913;-73
2021/03/07 04:24:36;;;;;;;;;;;;;;;-1.93;76.72;101364.38;6161489;23;19908;-73
2021/03/07 04:27:01;;;;;;;;;;;;;;;-1.96;76.48;101358.50;6188058;23;19915;-73
2021/03/07 04:29:27;;;;;;;;;;;;;;;-1.97;76.59;101364.97;6112778;23;19916;-73
2021/03/07 04:31:53;;;;;;;;;;;;;;;-1.98;76.55;101355.09;6162199;23;19912;-73
2021/03/07 04:34:18;;;;;;;;;;;;;;;-1.95;76.51;101360.16;6162501;23;19924;-73
2021/03/07 04:36:43;;;;;;;;;;;;;;;-1.99;76.53;101365.16;6163724;23;19963;-73
2021/03/07 04:39:09;;;;;;;;;;;;;;;-2.07;76.80;101370.69;6189631;23;19931;-73
2021/03/07 04:41:34;;;;;;;;;;;;;;;-2.07;76.50;101371.53;6138942;23;19939;-73
2021/03/07 04:44:01;;;;;;;;;;;;;;;-2.04;76.45;101373.03;6139081;23;19908;-73
2021/03/07 04:46:26;;;;;;;;;;;;;;;-2.10;76.38;101369.19;6190043;23;19912;-73
2021/03/07 04:48:51;;;;;;;;;;;;;;;-2.14;76.54;101362.47;6189777;23;19956;-73
2021/03/07 04:51:17;;;;;;;;;;;;;;;-2.14;76.62;101367.91;6163953;23;19912;-73
2021/03/07 04:53:42;;;;;;;;;;;;;;;-2.14;76.84;101361.63;6162984;23;19947;-73
2021/03/07 04:56:07;;;;;;;;;;;;;;;-2.19;76.81;101370.34;6189858;23;19962;-73
2021/03/07 04:58:33;;;;;;;;;;;;;;;-2.21;76.92;101361.53;6114680;23;19908;-73
2021/03/07 05:00:59;;;;;;;;;;;;;;;-2.22;76.89;101365.28;6189657;23;19962;-73
2021/03/07 05:03:24;;;;;;;;;;;;;;;-2.27;76.80;101367.72;6114352;23;19990;-73
2021/03/07 05:05:49;;;;;;;;;;;;;;;-2.25;76.71;101371.09;6163284;23;19908;-73
2021/03/07 05:08:15;;;;;;;;;;;;;;;-2.31;76.94;101363.72;6163031;23;20237;-73
2021/03/07 05:10:40;;;;;;;;;;;;;;;-2.35;76.97;101368.66;6163121;23;20384;-73
2021/03/07 05:13:05;;;;;;;;;;;;;;;-2.34;76.80;101366.78;6114634;23;20344;-73
2021/03/07 05:15:31;;;;;;;;;;;;;;;-2.41;76.97;101363.97;6138955;23;19958;-73
2021/03/07 05:17:56;;;;;;;;;;;;;;;-2.36;77.23;101368.88;6189755;23;19955;-73
2021/03/07 05:20:22;;;;;;;;;;;;;;;-2.40;77.25;101367.53;6163089;23;19919;-73
2021/03/07 05:22:47;;;;;;;;;;;;;;;-2.35;77.16;101371.38;6163435;23;19916;-73
2021/03/07 05:25:12;;;;;;;;;;;;;;;-2.39;77.13;101370.09;6189160;23;19908;-73
2021/03/07 05:27:38;;;;;;;;;;;;;;;-2.41;77.28;101368.56;6189471;23;19908;-73
2021/03/07 05:30:03;;;;;;;;;;;;;;;-2.49;77.45;101370.34;6162989;23;19912;-74
2021/03/07 05:32:29;;;;;;;;;;;;;;;-2.44;77.22;101368.97;6162892;23;19915;-73
2021/03/07 05:34:54;;;;;;;;;;;;;;;-2.44;77.33;101363.53;6189024;23;19921;-73
2021/03/07 05:37:21;;;;;;;;;;;;;;;-2.51;77.50;101366.13;6162484;23;21934;-73
2021/03/07 05:39:46;;;;;;;;;;;;;;;-2.52;77.51;101369.88;6162049;23;19916;-73
2021/03/07 05:42:12;;;;;;;;;;;;;;;-2.53;77.55;101374.50;6138068;23;19935;-73
2021/03/07 05:44:37;;;;;;;;;;;;;;;-2.55;77.59;101365.66;6138593;23;19908;-73
2021/03/07 05:47:03;;;;;;;;;;;;;;;-2.60;77.77;101372.69;6138284;23;19992;-73
2021/03/07 05:49:28;;;;;;;;;;;;;;;-2.58;77.60;101382.34;6162941;23;19983;-73
2021/03/07 05:51:53;;;;;;;;;;;;;;;-2.58;77.34;101371.47;6113915;23;19914;-73
2021/03/07 05:54:19;;;;;;;;;;;;;;;-2.63;77.39;101379.34;6113421;23;20310;-73
2021/03/07 05:56:51;;;;;;;;;;;;;;;-2.60;77.28;101373.53;6189085;23;19916;-73
2021/03/07 05:59:16;;;;;;;;;;;;;;;-2.62;77.13;101375.63;6162770;23;19931;-73
2021/03/07 06:01:42;;;;;;;;;;;;;;;-2.63;77.56;101373.06;6137952;23;20365;-73
2021/03/07 06:04:07;;;;;;;;;;;;;;;-2.64;77.26;101374.94;6138153;23;19912;-73
2021/03/07 06:06:32;;;;;;;;;;;;;;;-2.65;77.23;101365.09;6162550;23;19911;-73
2021/03/07 06:09:17;;;;;;;;;;;;;;;-2.67;77.35;101361.72;6162324;23;20005;-73
2021/03/07 06:11:42;;;;;;;;;;;;;;;-2.67;77.63;101366.28;6162824;23;20241;-73
2021/03/07 06:14:37;;;;;;;;;;;;;;;-2.68;77.30;101362.75;6162684;23;19908;-73
2021/03/07 06:17:06;;;;;;;;;;;;;;;-2.67;77.08;101364.44;6119132;23;19936;-73
2021/03/07 06:19:31;;;;;;;;;;;;;;;-2.70;77.01;101362.94;6162721;23;19909;-73
2021/03/07 06:22:11;;;;;;;;;;;;;;;-2.70;77.04;101360.22;6162911;23;19962;-73
2021/03/07 06:24:37;;;;;;;;;;;;;;;-2.69;76.99;101358.34;6162298;23;19915;-73
2021/03/07 06:27:03;;;;;;;;;;;;;;;-2.74;76.87;101366.22;6162789;23;19912;-73
2021/03/07 06:29:28;;;;;;;;;;;;;;;-2.66;76.73;101362.56;6162638;23;19908;-73
2021/03/07 06:31:53;;;;;;;;;;;;;;;-2.73;76.85;101357.00;6162716;23;19915;-73
2021/03/07 06:34:19;;;;;;;;;;;;;;;-2.79;77.17;101363.19;6162314;23;19920;-73
2021/03/07 06:36:44;;;;;;;;;;;;;;;-2.80;77.26;101358.81;6162488;23;20782;-73
2021/03/07 06:39:10;;;;;;;;;;;;;;;-2.82;77.29;101363.56;6162056;23;20003;-73
2021/03/07 06:41:35;;;;;;;;;;;;;;;-2.80;77.27;101366.97;6162463;23;19916;-73
2021/03/07 06:44:14;;;;;;;;;;;;;;;-2.86;77.49;101357.66;6138243;23;20012;-73
2021/03/07 06:46:40;;;;;;;;;;;;;;;-2.87;77.55;101366.88;6162289;23;19983;-72
2021/03/07 06:49:05;;;;;;;;;;;;;;;-2.85;77.24;101362.06;6113746;23;19908;-73
2021/03/07 06:51:31;;;;;;;;;;;;;;;-2.84;77.54;101362.91;6188704;23;20215;-73
2021/03/07 06:53:57;;;;;;;;;;;;;;;-2.89;77.84;101362.63;6188609;23;19909;-73
2021/03/07 06:56:38;;;;;;;;;;;;;;;-2.90;77.81;101361.78;6112886;23;20566;-73
2021/03/07 06:59:11;;;;;;;;;;;;;;;-2.85;77.82;101361.22;6162351;23;19952;-73
2021/03/07 07:01:39;;;;;;;;;;;;;;;-2.85;77.88;101363.94;6188631;23;19912;-73
2021/03/07 07:04:05;;;;;;;;;;;;;;;-2.86;78.31;101368.53;6162609;23;19960;-73
2021/03/07 07:06:31;;;;;;;;;;;;;;;-2.83;78.27;101367.31;6188042;23;19935;-73
2021/03/07 07:08:56;;;;;;;;;;;;;;;-2.80;78.18;101367.78;6188335;23;19912;-73
2021/03/07 07:11:22;;;;;;;;;;;;;;;-2.78;78.20;101371.19;6162546;23;19935;-73
2021/03/07 07:13:48;;;;;;;;;;;;;;;-2.73;78.36;101368.75;6162398;23;19974;-73
2021/03/07 07:16:13;;;;;;;;;;;;;;;-2.66;78.66;101368.84;6188360;23;19909;-74
2021/03/07 07:18:40;;;;;;;;;;;;;;;-2.59;78.72;101368.94;6188492;23;19915;-73
2021/03/07 07:21:07;;;;;;;;;;;;;;;-2.53;78.70;101373.66;6113420;23;19908;-73
2021/03/07 07:23:32;;;;;;;;;;;;;;;-2.44;78.32;101375.25;6188196;23;19919;-74
2021/03/07 07:25:57;;;;;;;;;;;;;;;-2.36;78.38;101369.69;6188365;23;19908;-73
2021/03/07 07:28:23;;;;;;;;;;;;;;;-2.25;78.47;101374.66;6162372;23;19909;-73
2021/03/07 07:31:07;;;;;;;;;;;;;;;-2.16;78.52;101369.97;6137229;23;19908;-74
2021/03/07 07:33:36;;;;;;;;;;;;;;;-2.06;78.46;101370.53;6188377;23;19912;-73
2021/03/07 07:36:01;;;;;;;;;;;;;;;-1.94;78.47;101372.75;6162324;23;19916;-73
2021/03/07 07:38:33;;;;;;;;;;;;;;;-1.83;78.67;101369.53;6161848;23;19909;-74
2021/03/07 07:40:58;;;;;;;;;;;;;;;-1.69;79.00;101379.56;6162356;23;19915;-73
2021/03/07 07:43:24;;;;;;;;;;;;;;;-1.59;79.13;101377.38;6161987;23;19909;-73
2021/03/07 07:45:49;;;;;;;;;;;;;;;-1.46;79.10;101373.09;6137667;23;19931;-74
2021/03/07 07:48:35;;;;;;;;;;;;;;;-1.30;79.61;101380.19;6112975;23;19909;-73
2021/03/07 07:51:15;;;;;;;;;;;;;;;-1.12;79.82;101375.09;6136612;23;19944;-73
2021/03/07 07:53:40;;;;;;;;;;;;;;;-0.95;79.91;101375.66;6112321;23;20323;-73
2021/03/07 07:56:06;;;;;;;;;;;;;;;-0.79;79.74;101379.97;6112979;23;19994;-73
2021/03/07 07:58:34;;;;;;;;;;;;;;;-0.64;79.48;101367.09;6137772;23;19919;-73
2021/03/07 08:01:00;;;;;;;;;;;;;;;-0.51;79.29;101372.63;6137289;23;19909;-73
2021/03/07 08:03:31;;;;;;;;;;;;;;;-0.39;79.37;101364.75;6113164;23;19990;-73
2021/03/07 08:05:57;;;;;;;;;;;;;;;-0.24;79.02;101367.34;6137472;23;19909;-73
2021/03/07 08:08:29;;;;;;;;;;;;;;;-0.11;79.43;101372.88;6137879;23;19959;-72
2021/03/07 08:10:55;;;;;;;;;;;;;;;0.02;79.00;101372.06;6139300;23;20372;-73
2021/03/07 08:13:26;;;;;;;;;;;;;;;0.10;79.05;101368.34;6137887;23;19908;-73
2021/03/07 08:15:52;;;;;;;;;;;;;;;0.19;79.21;101367.94;6190184;23;20065;-73
2021/03/07 08:18:18;;;;;;;;;;;;;;;0.29;78.91;101380.38;6163591;23;19908;-73
2021/03/07 08:20:44;;;;;;;;;;;;;;;0.40;78.86;101371.59;6139452;23;20255;-73
2021/03/07 08:23:12;;;;;;;;;;;;;;;0.48;78.75;101371.41;6189646;23;19913;-73
2021/03/07 08:25:50;;;;;;;;;;;;;;;0.58;78.36;101371.84;6188396;23;20277;-73
2021/03/07 08:28:24;;;;;;;;;;;;;;;0.69;78.22;101369.56;6163472;23;19932;-73
2021/03/07 08:30:50;;;;;;;;;;;;;;;0.77;78.42;101366.63;6189870;23;19912;-73
2021/03/07 08:33:25;;;;;;;;;;;;;;;0.83;78.25;101371.25;6138781;23;19959;-73
2021/03/07 08:36:09;;;;;;;;;;;;;;;0.93;78.47;101379.88;6189836;23;20518;-73
2021/03/07 08:38:34;;;;;;;;;;;;;;;1.06;78.59;101374.44;6163251;23;20030;-73
2021/03/07 08:41:00;;;;;;;;;;;;;;;1.14;78.50;101372.53;6163177;23;19912;-73
2021/03/07 08:43:25;;;;;;;;;;;;;;;1.24;78.41;101383.91;6189854;23;19908;-73
2021/03/07 08:46:04;;;;;;;;;;;;;;;1.31;78.53;101380.13;6189868;23;19908;-72
2021/03/07 08:48:31;;;;;;;;;;;;;;;1.39;78.68;101373.56;6189810;23;19912;-74
2021/03/07 08:50:56;;;;;;;;;;;;;;;1.48;78.44;101380.50;6114480;23;19909;-74
2021/03/07 08:53:28;;;;;;;;;;;;;;;1.59;78.70;101375.44;6187825;23;19912;-74
2021/03/07 08:55:54;;;;;;;;;;;;;;;1.70;79.68;101369.28;6163534;23;19912;-74
2021/03/07 08:58:19;;;;;;;;;;;;;;;1.82;79.14;101374.97;6163010;23;19908;-74
2021/03/07 09:00:45;;;;;;;;;;;;;;;1.97;78.95;101376.38;6189639;23;19908;-74
2021/03/07 09:03:16;;;;;;;;;;;;;;;2.10;78.64;101363.69;6189604;23;19967;-74
2021/03/07 09:05:42;;;;;;;;;;;;;;;2.25;79.00;101372.47;6189578;23;20326;-73
2021/03/07 09:08:07;;;;;;;;;;;;;;;2.40;78.99;101367.56;6163078;23;20215;-73
2021/03/07 09:10:36;;;;;;;;;;;;;;;2.52;77.92;101364.13;6188066;23;19935;-73
2021/03/07 09:13:05;;;;;;;;;;;;;;;2.61;77.95;101363.63;6189487;23;19991;-73
2021/03/07 09:15:31;;;;;;;;;;;;;;;2.70;78.03;101364.22;6189633;23;19915;-78
2021/03/07 09:18:03;;;;;;;;;;;;;;;2.77;77.43;101366.91;6140775;23;19909;-74
2021/03/07 09:20:44;;;;;;;;;;;;;;;2.83;77.17;101368.78;6189112;23;20246;-74
2021/03/07 09:23:25;;;;;;;;;;;;;;;2.91;76.64;101372.09;6189207;23;19913;-73
2021/03/07 09:25:50;;;;;;;;;;;;;;;2.99;76.48;101368.22;6189504;23;19916;-74
2021/03/07 09:28:30;;;;;;;;;;;;;;;3.08;75.79;101364.13;6189451;23;20487;-74
2021/03/07 09:30:56;;;;;;;;;;;;;;;3.26;76.11;101365.25;6162648;23;20348;-73
2021/03/07 09:33:21;;;;;;;;;;;;;;;3.35;75.61;101369.41;6186196;23;20472;-74
2021/03/07 09:35:47;;;;;;;;;;;;;;;3.39;74.51;101364.31;6189168;23;19908;-73
2021/03/07 09:38:14;;;;;;;;;;;;;;;3.51;74.26;101363.34;6189069;23;19912;-74
2021/03/07 09:40:41;;;;;;;;;;;;;;;3.63;74.53;101366.19;6163450;23;19920;-74
2021/03/07 09:43:07;;;;;;;;;;;;;;;3.74;74.62;101368.19;6189539;23;19918;-73
2021/03/07 09:45:32;;;;;;;;;;;;;;;3.88;74.47;101370.78;6162944;23;19919;-74
2021/03/07 09:47:58;;;;;;;;;;;;;;;3.94;73.75;101369.88;6189427;23;19928;-74
2021/03/07 09:50:24;;;;;;;;;;;;;;;4.07;72.91;101361.47;6163068;23;19908;-74
2021/03/07 09:52:49;;;;;;;;;;;;;;;4.17;72.19;101367.25;6163042;23;19990;-73
2021/03/07 09:55:24;;;;;;;;;;;;;;;4.30;71.71;101363.50;6137855;23;19908;-73
2021/03/07 09:58:03;;;;;;;;;;;;;;;4.33;71.34;101363.03;6138364;23;20000;-74
2021/03/07 10:00:28;;;;;;;;;;;;;;;4.44;71.20;101365.00;6163055;23;19908;-74
2021/03/07 10:02:53;;;;;;;;;;;;;;;4.57;70.83;101352.13;6189279;23;19916;-73
2021/03/07 10:05:19;;;;;;;;;;;;;;;4.63;69.64;101354.78;6162011;23;20334;-74
2021/03/07 10:07:44;;;;;;;;;;;;;;;4.65;69.85;101352.66;6188816;23;19909;-74
2021/03/07 10:10:25;;;;;;;;;;;;;;;4.76;69.40;101347.41;6160793;23;19915;-82
2021/03/07 10:12:52;;;;;;;;;;;;;;;4.83;69.83;101342.63;6162783;23;19922;-75
2021/03/07 10:15:26;;;;;;;;;;;;;;;4.90;70.00;101340.59;6189096;23;19927;-74
2021/03/07 10:17:51;;;;;;;;;;;;;;;4.89;69.08;101338.94;6188852;23;19914;-74
2021/03/07 10:20:17;;;;;;;;;;;;;;;5.02;68.77;101347.00;6189234;23;19940;-73
2021/03/07 10:22:43;;;;;;;;;;;;;;;5.12;68.55;101340.88;6188954;23;19939;-74
2021/03/07 10:25:10;;;;;;;;;;;;;;;5.28;68.73;101339.34;6188800;23;19908;-73
2021/03/07 10:27:35;;;;;;;;;;;;;;;5.33;68.61;101342.25;6162535;23;19909;-74
2021/03/07 10:30:01;;;;;;;;;;;;;;;5.42;68.04;101345.47;6162867;23;19912;-73
2021/03/07 10:32:26;;;;;;;;;;;;;;;5.49;66.53;101344.28;6162280;23;19908;-73
2021/03/07 10:34:52;;;;;;;;;;;;;;;5.59;66.45;101338.97;6162494;23;19944;-73
2021/03/07 10:37:41;;;;;;;;;;;;;;;5.65;66.60;101337.19;6162481;23;19908;-74
2021/03/07 10:40:07;;;;;;;;;;;;;;;5.72;66.17;101337.06;6176427;23;19952;-74
2021/03/07 10:42:33;;;;;;;;;;;;;;;5.82;67.12;101332.63;6162382;23;19912;-74
2021/03/07 10:45:18;;;;;;;;;;;;;;;5.89;65.88;101329.72;6162910;23;19908;-74
2021/03/07 10:47:44;;;;;;;;;;;;;;;5.88;65.80;101333.56;6188648;23;19947;-73
2021/03/07 10:50:09;;;;;;;;;;;;;;;5.99;64.44;101332.75;6188778;23;19908;-73
2021/03/07 10:52:34;;;;;;;;;;;;;;;6.04;63.33;101326.47;6162563;23;19908;-73
2021/03/07 10:55:00;;;;;;;;;;;;;;;6.14;63.84;101323.94;6161975;23;19986;-73
2021/03/07 10:57:25;;;;;;;;;;;;;;;6.26;63.78;101321.13;6188927;23;19908;-73
2021/03/07 10:59:51;;;;;;;;;;;;;;;6.37;61.86;101320.25;6162274;23;19908;-74
2021/03/07 11:02:17;;;;;;;;;;;;;;;6.43;61.68;101323.94;6188338;23;19920;-73
2021/03/07 11:04:44;;;;;;;;;;;;;;;6.46;61.78;101329.81;6162541;23;19913;-73
2021/03/07 11:07:09;;;;;;;;;;;;;;;6.43;60.56;101322.00;6188553;23;19908;-73
2021/03/07 11:09:35;;;;;;;;;;;;;;;6.46;61.19;101316.03;6161699;23;19908;-74
2021/03/07 11:12:00;;;;;;;;;;;;;;;6.45;60.20;101311.56;6162306;23;19958;-73
2021/03/07 11:14:25;;;;;;;;;;;;;;;6.48;59.12;101308.31;6137451;23;20336;-74
2021/03/07 11:16:51;;;;;;;;;;;;;;;6.53;59.72;101302.06;6162021;23;19909;-73
2021/03/07 11:19:16;;;;;;;;;;;;;;;6.61;60.23;101298.06;6162112;23;19908;-73
2021/03/07 11:21:41;;;;;;;;;;;;;;;6.65;59.10;101302.00;6188377;23;19924;-74
2021/03/07 11:24:07;;;;;;;;;;;;;;;6.61;58.95;101303.59;6188071;23;19915;-74
2021/03/07 11:26:32;;;;;;;;;;;;;;;6.65;60.47;101299.22;6137613;23;19908;-74
2021/03/07 11:28:57;;;;;;;;;;;;;;;6.74;60.55;101300.50;6162139;23;19933;-74
2021/03/07 11:31:23;;;;;;;;;;;;;;;6.83;58.76;101301.78;6137364;23;19915;-74
2021/03/07 11:33:48;;;;;;;;;;;;;;;6.90;60.38;101294.16;6161615;23;19947;-74
2021/03/07 11:36:13;;;;;;;;;;;;;;;6.98;58.72;101294.84;6188320;23;19912;-74
2021/03/07 11:38:39;;;;;;;;;;;;;;;7.01;56.29;101300.69;6161917;23;20208;-73
2021/03/07 11:41:04;;;;;;;;;;;;;;;7.02;56.79;101296.84;6187388;23;19908;-73
2021/03/07 11:43:30;;;;;;;;;;;;;;;7.05;56.07;101287.19;6186676;23;19981;-73
2021/03/07 11:45:58;;;;;;;;;;;;;;;7.03;56.47;101293.00;6161491;23;20321;-73
2021/03/07 11:48:23;;;;;;;;;;;;;;;7.11;56.66;101294.50;6138042;23;20322;-74
2021/03/07 11:50:49;;;;;;;;;;;;;;;7.09;56.83;101291.16;6137259;23;19932;-73
2021/03/07 11:53:14;;;;;;;;;;;;;;;7.10;56.50;101290.03;6186677;23;19958;-73
2021/03/07 11:55:39;;;;;;;;;;;;;;;7.17;57.96;101285.19;6188153;23;20378;-73
2021/03/07 11:58:05;;;;;;;;;;;;;;;7.18;57.35;101286.84;6136260;23;19908;-74
2021/03/07 12:00:30;;;;;;;;;;;;;;;7.23;57.60;101272.31;6137049;23;20234;-73
2021/03/07 12:02:55;;;;;;;;;;;;;;;7.20;56.92;101279.16;6136573;23;19913;-73
2021/03/07 12:05:21;;;;;;;;;;;;;;;7.30;57.22;101275.72;6187934;23;20113;-73
2021/03/07 12:07:46;;;;;;;;;;;;;;;7.26;56.98;101272.63;6187862;23;20326;-73
2021/03/07 12:10:11;;;;;;;;;;;;;;;7.21;56.62;101272.53;6187946;23;19993;-74
2021/03/07 12:12:37;;;;;;;;;;;;;;;7.25;55.86;101270.13;6188087;23;20377;-74
2021/03/07 12:15:02;;;;;;;;;;;;;;;7.31;56.36;101271.88;6188107;23;19992;-73
2021/03/07 12:17:28;;;;;;;;;;;;;;;7.32;56.11;101265.25;6161645;23;19908;-73
2021/03/07 12:19:53;;;;;;;;;;;;;;;7.38;56.12;101255.94;6137047;23;19909;-73
2021/03/07 12:22:18;;;;;;;;;;;;;;;7.44;56.22;101267.88;6187912;23;19912;-73
2021/03/07 12:24:43;;;;;;;;;;;;;;;7.54;56.08;101263.34;6187940;23;19916;-73
2021/03/07 12:27:10;;;;;;;;;;;;;;;7.55;55.08;101248.47;6187987;23;20043;-74
2021/03/07 12:29:35;;;;;;;;;;;;;;;7.61;55.73;101246.59;6136587;23;19912;-74
2021/03/07 12:32:01;;;;;;;;;;;;;;;7.65;54.36;101246.91;6161303;23;19936;-73
2021/03/07 12:34:26;;;;;;;;;;;;;;;7.68;54.13;101246.38;6161514;23;19951;-73
2021/03/07 12:36:52;;;;;;;;;;;;;;;7.73;53.89;101233.47;6161606;23;19916;-73
2021/03/07 12:39:17;;;;;;;;;;;;;;;7.84;55.11;101223.38;6187613;23;19942;-73